Time;durP1;ratioP1;P1;durP2;ratioP2;P2;SDS_P1;SDS_P2;PMS_P1;PMS_P2;Temp;Humidity;BMP_temperature;BMP_pressure;BME280_temperature;BME280_humidity;BME280_pressure;Samples;Min_cycle;Max_cycle;Signal;HPM_P1;HPM_P2
2022/09/20 00:00:44;;;;;;;7.90;2.67;;;8.40;99.90;;;;;;5040448;28;20032;-77
2022/09/20 00:03:11;;;;;;;7.43;2.25;;;8.40;99.90;;;;;;5033733;28;20147;-76
2022/09/20 00:05:38;;;;;;;6.57;2.90;;;8.40;99.90;;;;;;5040556;28;20033;-79
2022/09/20 00:08:06;;;;;;;10.45;2.70;;;8.40;99.90;;;;;;5037679;28;20497;-79
2022/09/20 00:10:36;;;;;;;10.75;2.85;;;8.40;99.90;;;;;;5046101;28;20360;-78
2022/09/20 00:13:03;;;;;;;7.25;2.83;;;8.40;99.90;;;;;;5034204;28;20057;-77
2022/09/20 00:15:29;;;;;;;7.03;2.72;;;8.50;99.90;;;;;;5033606;28;20033;-70
2022/09/20 00:17:55;;;;;;;7.97;2.15;;;8.50;99.90;;;;;;5035018;28;20125;-78
2022/09/20 00:20:21;;;;;;;5.43;2.28;;;8.50;99.90;;;;;;5048856;28;20113;-76
2022/09/20 00:22:48;;;;;;;6.97;2.20;;;8.40;99.90;;;;;;5036764;28;20391;-78
2022/09/20 00:25:18;;;;;;;8.05;2.15;;;8.50;99.90;;;;;;5039422;28;20079;-78
2022/09/20 00:27:45;;;;;;;5.72;2.97;;;8.40;99.90;;;;;;5051300;28;20444;-78
2022/09/20 00:30:12;;;;;;;5.55;2.20;;;8.40;99.90;;;;;;5052246;28;20044;-79
2022/09/20 00:32:38;;;;;;;5.45;2.08;;;8.40;99.90;;;;;;5052209;28;20074;-79
2022/09/20 00:35:08;;;;;;;5.68;2.58;;;8.40;99.90;;;;;;5052926;28;20467;-78
2022/09/20 00:37:35;;;;;;;6.50;2.38;;;8.40;99.90;;;;;;5041978;28;20033;-77
2022/09/20 00:40:02;;;;;;;7.10;2.40;;;8.30;99.90;;;;;;5043107;28;20029;-77
2022/09/20 00:42:30;;;;;;;5.00;2.40;;;8.30;99.90;;;;;;5040435;28;20120;-79
2022/09/20 00:44:59;;;;;;;6.45;2.33;;;8.20;99.90;;;;;;5053217;28;20487;-77
2022/09/20 00:47:43;;;;;;;7.32;2.47;;;8.20;99.90;;;;;;5059401;28;20047;-77
2022/09/20 00:50:37;;;;;;;5.72;2.17;;;8.20;99.90;;;;;;5060890;28;20035;-78
2022/09/20 00:53:14;;;;;;;8.05;1.98;;;8.30;99.90;;;;;;5059763;28;20107;-78
2022/09/20 00:55:48;;;;;;;5.85;2.78;;;8.30;99.90;;;;;;5052888;28;20476;-79
2022/09/20 00:58:16;;;;;;;5.70;1.98;;;8.30;99.90;;;;;;5057910;28;20036;-77
2022/09/20 01:00:44;;;;;;;8.85;2.15;;;8.30;99.90;;;;;;5054217;28;20078;-79
2022/09/20 01:03:11;;;;;;;4.72;2.00;;;8.40;99.90;;;;;;5058518;28;20048;-79
2022/09/20 01:05:38;;;;;;;5.63;2.22;;;8.40;99.90;;;;;;5058216;28;20444;-79
2022/09/20 01:08:04;;;;;;;4.22;2.42;;;8.40;99.90;;;;;;5055416;28;20033;-77
2022/09/20 01:10:31;;;;;;;7.07;2.10;;;8.40;99.90;;;;;;5056069;28;20120;-72
2022/09/20 01:12:57;;;;;;;6.47;2.13;;;8.40;99.90;;;;;;5054584;28;20056;-78
2022/09/20 01:15:26;;;;;;;6.78;2.28;;;8.40;99.90;;;;;;5062077;28;20421;-79
2022/09/20 01:17:54;;;;;;;2.83;1.65;;;8.40;99.90;;;;;;5055339;28;20056;-78
2022/09/20 01:20:24;;;;;;;4.97;2.13;;;8.40;99.90;;;;;;5058952;28;20032;-77
2022/09/20 01:23:23;;;;;;;3.85;1.83;;;8.40;99.90;;;;;;5056470;28;20048;-78
2022/09/20 01:26:16;;;;;;;6.10;2.60;;;8.40;99.90;;;;;;5059170;28;20444;-80
2022/09/20 01:28:46;;;;;;;5.53;1.80;;;8.40;99.90;;;;;;5054551;28;20025;-78
2022/09/20 01:31:12;;;;;;;3.67;2.30;;;8.40;99.90;;;;;;5048949;28;20024;-79
2022/09/20 01:34:06;;;;;;;8.32;2.53;;;8.40;99.90;;;;;;5060216;28;20052;-78
2022/09/20 01:36:44;;;;;;;6.28;2.17;;;8.40;99.90;;;;;;5059068;28;20382;-71
2022/09/20 01:39:33;;;;;;;5.13;2.58;;;8.40;99.90;;;;;;5059806;28;20036;-78
2022/09/20 01:42:06;;;;;;;6.75;2.97;;;8.50;99.90;;;;;;5030746;28;20065;-75
2022/09/20 01:44:58;;;;;;;10.07;2.15;;;8.40;99.90;;;;;;5032081;28;20041;-71
2022/09/20 01:47:44;;;;;;;4.50;2.17;;;8.40;99.90;;;;;;5034959;28;20037;-79
2022/09/20 01:51:04;;;;;;;9.40;2.72;;;8.50;99.90;;;;;;5047485;28;20031;-79
2022/09/20 01:54:06;;;;;;;8.25;2.63;;;8.40;99.90;;;;;;4991663;28;20093;-79
2022/09/20 01:56:46;;;;;;;6.05;2.35;;;8.40;99.90;;;;;;5032986;28;20041;-72
2022/09/20 01:59:22;;;;;;;;;;;8.50;99.90;;;;;;5043807;28;20070;-77
2022/09/20 02:02:06;;;;;;;4.00;2.08;;;8.50;99.90;;;;;;5050627;28;19913;-78
2022/09/20 02:04:39;;;;;;;5.63;2.10;;;8.40;99.90;;;;;;5047073;28;20021;-71
2022/09/20 02:07:29;;;;;;;4.03;2.08;;;8.50;99.90;;;;;;5031683;28;20033;-78
2022/09/20 02:10:14;;;;;;;4.72;2.47;;;8.50;99.90;;;;;;5043047;28;20647;-79
2022/09/20 02:12:55;;;;;;;7.03;2.22;;;8.50;99.90;;;;;;5050227;28;20053;-77
2022/09/20 02:15:48;;;;;;;6.35;2.00;;;8.40;99.90;;;;;;5050355;28;20044;-78
2022/09/20 02:18:31;;;;;;;5.22;2.17;;;8.40;99.90;;;;;;5040049;28;20502;-79
2022/09/20 02:21:30;;;;;;;6.38;2.65;;;8.50;99.90;;;;;;5034633;28;20029;-77
2022/09/20 02:24:13;;;;;;;4.25;1.88;;;8.50;99.90;;;;;;5048704;28;20043;-78
2022/09/20 02:27:04;;;;;;;3.63;1.70;;;8.50;99.90;;;;;;5050205;28;20033;-78
2022/09/20 02:29:48;;;;;;;7.13;1.98;;;8.50;99.90;;;;;;5017542;28;20048;-78
2022/09/20 02:32:28;;;;;;;4.82;2.28;;;8.60;99.90;;;;;;5036328;28;20041;-78
2022/09/20 02:35:18;;;;;;;3.47;1.65;;;8.60;99.90;;;;;;5048663;28;20084;-76
2022/09/20 02:38:04;;;;;;;3.53;1.50;;;8.60;99.90;;;;;;5047271;28;20051;-79
2022/09/20 02:40:30;;;;;;;3.40;1.73;;;8.60;99.90;;;;;;5050636;28;20194;-78
2022/09/20 02:43:04;;;;;;;4.57;2.25;;;8.60;99.90;;;;;;5052959;28;20557;-78
2022/09/20 02:45:57;;;;;;;3.28;1.67;;;8.60;99.90;;;;;;5054915;28;20025;-80
2022/09/20 02:48:35;;;;;;;6.95;1.75;;;8.60;99.90;;;;;;5035887;28;20030;-79
2022/09/20 02:51:06;;;;;;;7.47;2.17;;;8.60;99.90;;;;;;5035028;28;20132;-80
2022/09/20 02:53:58;;;;;;;9.02;2.67;;;8.70;99.90;;;;;;5035044;28;20029;-78
2022/09/20 02:56:46;;;;;;;4.50;1.80;;;8.70;99.90;;;;;;5035214;28;20047;-79
2022/09/20 02:59:48;;;;;;;7.55;1.83;;;8.70;99.90;;;;;;5034163;28;20109;-78
2022/09/20 03:02:35;;;;;;;5.10;2.05;;;8.80;99.90;;;;;;5051683;28;20025;-79
2022/09/20 03:05:17;;;;;;;5.95;1.85;;;8.80;99.90;;;;;;5053958;28;20043;-79
2022/09/20 03:08:23;;;;;;;4.85;1.77;;;8.90;99.90;;;;;;5034543;28;20029;-77
2022/09/20 03:10:58;;;;;;;3.63;1.52;;;8.90;99.90;;;;;;5044052;28;20029;-78
2022/09/20 03:13:29;;;;;;;4.65;1.25;;;8.90;99.90;;;;;;5053290;28;20484;-77
2022/09/20 03:16:15;;;;;;;5.78;1.85;;;8.80;99.90;;;;;;5042661;28;20602;-77
2022/09/20 03:18:41;;;;;;;4.70;1.48;;;8.80;99.90;;;;;;5034266;28;20485;-77
2022/09/20 03:21:28;;;;;;;2.78;1.50;;;8.80;99.90;;;;;;5035914;28;20025;-77
2022/09/20 03:24:23;;;;;;;6.15;1.80;;;8.70;99.90;;;;;;5034535;28;20091;-77
2022/09/20 03:26:55;;;;;;;3.33;1.30;;;8.70;99.90;;;;;;5040364;28;20040;-76
2022/09/20 03:29:52;;;;;;;6.82;1.40;;;8.70;99.90;;;;;;5035147;28;20522;-78
2022/09/20 03:32:49;;;;;;;3.13;1.30;;;8.60;99.90;;;;;;5052469;28;20155;-79
2022/09/20 03:35:49;;;;;;;6.75;2.03;;;8.60;99.90;;;;;;5054415;28;20098;-79
2022/09/20 03:38:17;;;;;;;5.57;2.10;;;8.60;99.90;;;;;;5053954;28;20478;-78
2022/09/20 03:41:02;;;;;;;5.20;1.55;;;8.70;99.90;;;;;;5051521;28;20420;-79
2022/09/20 03:43:55;;;;;;;7.47;1.58;;;8.70;99.90;;;;;;5049919;28;20032;-79
2022/09/20 03:46:32;;;;;;;7.25;1.50;;;8.70;99.90;;;;;;5052098;28;20059;-80
2022/09/20 03:49:31;;;;;;;4.20;1.30;;;8.80;99.90;;;;;;5053124;28;20036;-80
2022/09/20 03:52:34;;;;;;;4.60;1.48;;;8.80;99.90;;;;;;5052115;28;20029;-83
2022/09/20 03:55:18;;;;;;;4.10;1.20;;;8.80;99.90;;;;;;5011952;28;20200;-79
2022/09/20 03:57:58;;;;;;;6.30;1.63;;;8.80;99.90;;;;;;5033278;28;20093;-79
2022/09/20 04:00:41;;;;;;;4.95;1.60;;;8.80;99.90;;;;;;5035531;28;20031;-79
2022/09/20 04:03:23;;;;;;;6.22;1.90;;;8.80;99.90;;;;;;5043260;28;20462;-78
2022/09/20 04:05:49;;;;;;;6.72;1.58;;;8.80;99.90;;;;;;5049594;28;20223;-79
2022/09/20 04:08:52;;;;;;;9.35;2.00;;;8.90;99.90;;;;;;5034084;28;20534;-78
2022/09/20 04:11:30;;;;;;;3.50;1.67;;;8.90;99.90;;;;;;5033936;28;20033;-79
2022/09/20 04:14:17;;;;;;;5.38;2.03;;;8.90;99.90;;;;;;5041163;28;20034;-80
2022/09/20 04:16:54;;;;;;;4.93;1.48;;;9.00;99.90;;;;;;5032580;28;20041;-78
2022/09/20 04:19:35;;;;;;;7.90;2.80;;;9.00;99.90;;;;;;5035559;28;20060;-77
2022/09/20 04:22:02;;;;;;;7.50;1.60;;;9.00;99.90;;;;;;5035668;28;20025;-80
2022/09/20 04:24:27;;;;;;;6.30;1.75;;;9.10;99.90;;;;;;5033822;28;20034;-80
2022/09/20 04:27:05;;;;;;;6.88;1.73;;;9.10;99.90;;;;;;5032767;28;20485;-77
2022/09/20 04:29:44;;;;;;;5.80;1.85;;;9.10;99.90;;;;;;5034509;28;20394;-76
2022/09/20 04:32:42;;;;;;;5.75;1.80;;;9.10;99.90;;;;;;5033596;28;20034;-77
2022/09/20 04:38:20;;;;;;;3.63;1.38;;;9.20;99.90;;;;;;5042062;28;20057;-76
2022/09/20 04:40:46;;;;;;;5.68;1.83;;;9.20;99.90;;;;;;5032550;28;20025;-79
2022/09/20 04:43:52;;;;;;;4.70;1.92;;;9.30;99.90;;;;;;5047185;28;20081;-79
2022/09/20 04:46:29;;;;;;;4.53;1.55;;;9.30;99.90;;;;;;5052431;28;20056;-80
2022/09/20 04:49:14;;;;;;;8.75;1.67;;;9.20;99.90;;;;;;5050354;28;20177;-78
2022/09/20 04:51:50;;;;;;;8.05;2.22;;;9.20;99.90;;;;;;5038112;28;20064;-72
2022/09/20 04:54:26;;;;;;;6.85;2.53;;;9.10;99.90;;;;;;5038435;28;20021;-80
2022/09/20 04:57:26;;;;;;;5.97;2.30;;;9.10;99.90;;;;;;5049959;28;20036;-80
2022/09/20 05:00:19;;;;;;;7.80;2.40;;;9.10;99.90;;;;;;5051439;28;20032;-75
2022/09/20 05:03:17;;;;;;;5.40;2.17;;;9.10;99.90;;;;;;5051759;28;20108;-83
2022/09/20 05:06:16;;;;;;;8.00;2.53;;;9.00;99.90;;;;;;5043844;28;20080;-74
2022/09/20 05:08:47;;;;;;;11.05;3.22;;;8.90;99.90;;;;;;5043065;28;20078;-75
2022/09/20 05:11:32;;;;;;;10.85;2.95;;;8.90;99.90;;;;;;5049481;28;20025;-82
2022/09/20 05:14:05;;;;;;;9.57;3.05;;;8.90;99.90;;;;;;5052065;28;20021;-83
2022/09/20 05:16:49;;;;;;;5.25;3.00;;;8.80;99.90;;;;;;5049896;28;20037;-82
2022/09/20 05:19:40;;;;;;;8.43;2.63;;;8.90;99.90;;;;;;5051294;28;20041;-84
2022/09/20 05:22:47;;;;;;;8.13;3.75;;;8.90;99.90;;;;;;5051798;28;20048;-84
2022/09/20 05:25:38;;;;;;;10.13;3.20;;;8.90;99.90;;;;;;5043575;28;20056;-84
2022/09/20 05:28:34;;;;;;;7.70;2.80;;;8.90;99.90;;;;;;5034049;28;20033;-84
2022/09/20 05:31:05;;;;;;;10.07;3.63;;;8.90;99.90;;;;;;5043091;28;20033;-83
2022/09/20 05:33:55;;;;;;;13.25;3.38;;;8.90;99.90;;;;;;5049226;28;20040;-84
2022/09/20 05:36:58;;;;;;;7.57;3.58;;;8.90;99.90;;;;;;5053649;28;20067;-82
2022/09/20 05:39:35;;;;;;;11.90;4.22;;;8.90;99.90;;;;;;5053434;28;20021;-83
2022/09/20 05:42:18;;;;;;;8.73;3.10;;;9.00;99.90;;;;;;5052919;28;20040;-83
2022/09/20 05:44:53;;;;;;;7.45;3.25;;;8.90;99.90;;;;;;5053302;28;20422;-73
2022/09/20 05:48:00;;;;;;;5.63;3.15;;;8.90;99.90;;;;;;5062213;28;20059;-82
2022/09/20 05:50:41;;;;;;;6.97;3.15;;;8.90;99.90;;;;;;5057061;28;20025;-80
2022/09/20 05:53:44;;;;;;;6.50;2.88;;;8.90;99.90;;;;;;5051663;28;20029;-83
2022/09/20 05:56:22;;;;;;;5.03;2.88;;;9.00;99.90;;;;;;5072538;28;20102;-83
2022/09/20 05:59:14;;;;;;;11.63;3.53;;;9.00;99.90;;;;;;5071823;28;20108;-85
2022/09/20 06:02:10;;;;;;;7.07;2.90;;;9.10;99.90;;;;;;5073075;28;20029;-82
2022/09/20 06:04:51;;;;;;;7.38;2.95;;;9.20;99.90;;;;;;5070918;28;20458;-82
2022/09/20 06:07:23;;;;;;;12.02;2.88;;;9.20;99.90;;;;;;5056595;28;20033;-83
2022/09/20 06:10:33;;;;;;;7.15;2.83;;;9.30;99.90;;;;;;5063654;28;20413;-82
2022/09/20 06:13:07;;;;;;;;;;;9.40;99.90;;;;;;5071647;28;20032;-82
2022/09/20 06:15:48;;;;;;;6.75;2.47;;;9.40;99.90;;;;;;5072403;28;19904;-83
2022/09/20 06:19:03;;;;;;;7.07;2.80;;;9.40;99.90;;;;;;5073116;28;20052;-82
2022/09/20 06:21:50;;;;;;;8.02;2.92;;;9.40;99.90;;;;;;5048080;28;20069;-83
2022/09/20 06:24:22;;;;;;;6.05;2.65;;;9.40;99.90;;;;;;5036737;28;20471;-83
2022/09/20 06:26:52;;;;;;;10.75;3.38;;;9.40;99.90;;;;;;5032682;28;20033;-83
2022/09/20 06:29:27;;;;;;;9.80;3.03;;;9.40;99.90;;;;;;5033405;28;20030;-85
2022/09/20 06:31:53;;;;;;;8.48;2.95;;;9.40;99.90;;;;;;5036325;28;20036;-81
2022/09/20 06:34:19;;;;;;;9.20;3.08;;;9.40;99.90;;;;;;5051858;28;20033;-81
2022/09/20 06:42:32;;;;;;;9.82;3.28;;;9.40;99.90;;;;;;5050242;28;20036;-81
2022/09/20 06:44:58;;;;;;;8.25;2.85;;;9.40;99.90;;;;;;5050144;28;20025;-79
2022/09/20 06:47:24;;;;;;;10.80;2.90;;;9.40;99.90;;;;;;5052616;28;20029;-80
2022/09/20 06:49:50;;;;;;;9.73;3.03;;;9.50;99.90;;;;;;5051428;28;20025;-79
2022/09/20 06:52:18;;;;;;;9.43;2.83;;;9.50;99.90;;;;;;5056407;28;20032;-79
2022/09/20 06:54:46;;;;;;;6.55;2.88;;;9.40;99.90;;;;;;5055984;28;20167;-73
2022/09/20 06:57:16;;;;;;;7.47;2.83;;;9.40;99.90;;;;;;5051639;28;20501;-80
2022/09/20 06:59:42;;;;;;;9.90;3.53;;;9.40;99.90;;;;;;5052206;28;20037;-81
2022/09/20 07:02:08;;;;;;;8.63;3.10;;;9.40;99.90;;;;;;5046600;28;20080;-79
2022/09/20 07:04:34;;;;;;;7.22;2.60;;;9.40;99.90;;;;;;5038811;28;20458;-79
2022/09/20 07:07:01;;;;;;;13.52;3.13;;;9.40;99.90;;;;;;5033473;28;20029;-80
2022/09/20 07:09:27;;;;;;;10.55;3.08;;;9.40;99.90;;;;;;5041817;28;20086;-79
2022/09/20 07:11:54;;;;;;;11.05;3.30;;;9.50;99.90;;;;;;5056624;28;20116;-81
2022/09/20 07:14:22;;;;;;;10.77;2.67;;;9.60;99.90;;;;;;5059052;28;20021;-80
2022/09/20 07:16:47;;;;;;;13.27;4.05;;;9.70;99.90;;;;;;5067420;28;20025;-73
2022/09/20 07:19:13;;;;;;;11.75;3.67;;;9.90;99.90;;;;;;5059558;28;20049;-80
2022/09/20 07:21:39;;;;;;;9.68;3.03;;;10.20;99.90;;;;;;5068064;28;20067;-80
2022/09/20 07:24:05;;;;;;;17.15;2.97;;;10.40;99.90;;;;;;5068443;28;20032;-80
2022/09/20 07:26:31;;;;;;;12.60;3.65;;;10.50;99.90;;;;;;5069806;28;20041;-80
2022/09/20 07:28:58;;;;;;;9.32;2.95;;;10.60;99.90;;;;;;5072030;28;20025;-82
2022/09/20 07:31:25;;;;;;;9.20;2.97;;;10.60;99.90;;;;;;5067403;28;20021;-80
2022/09/20 07:33:51;;;;;;;8.65;2.85;;;10.80;99.90;;;;;;5062176;28;20087;-80
2022/09/20 07:36:17;;;;;;;4.90;2.10;;;10.90;99.90;;;;;;5055075;28;20037;-80
2022/09/20 07:38:49;;;;;;;11.68;3.65;;;10.80;99.90;;;;;;5057371;28;20029;-80
2022/09/20 07:41:17;;;;;;;11.00;3.13;;;10.90;99.90;;;;;;5057276;28;20021;-81
2022/09/20 07:43:44;;;;;;;14.02;3.33;;;10.90;99.90;;;;;;5058062;28;20033;-81
2022/09/20 07:46:12;;;;;;;9.80;3.20;;;11.00;99.90;;;;;;5055796;28;20022;-81
2022/09/20 07:48:39;;;;;;;9.02;2.92;;;11.00;99.90;;;;;;5055501;28;20029;-80
2022/09/20 07:51:07;;;;;;;11.75;2.58;;;11.10;99.90;;;;;;5056617;28;20027;-80
2022/09/20 07:53:34;;;;;;;10.30;3.22;;;11.30;99.90;;;;;;5059864;28;20028;-80
2022/09/20 07:56:13;;;;;;;8.82;3.17;;;11.40;99.90;;;;;;5060775;28;20437;-80
2022/09/20 07:58:40;;;;;;;7.13;2.20;;;11.40;99.90;;;;;;5062987;28;20025;-80
2022/09/20 08:01:08;;;;;;;10.80;2.50;;;11.30;99.90;;;;;;5065254;28;20020;-80
2022/09/20 08:03:35;;;;;;;6.93;2.03;;;11.40;99.90;;;;;;5067055;28;20146;-80
2022/09/20 08:06:08;;;;;;;7.85;2.65;;;11.30;99.90;;;;;;5055793;28;20524;-80
2022/09/20 08:08:36;;;;;;;12.45;2.75;;;11.50;99.90;;;;;;5054093;28;20385;-81
2022/09/20 08:11:13;;;;;;;8.45;2.20;;;11.60;99.90;;;;;;5051448;28;20041;-81
2022/09/20 08:13:41;;;;;;;9.02;2.05;;;11.60;99.90;;;;;;5049025;28;20094;-80
2022/09/20 08:16:09;;;;;;;11.43;2.28;;;11.60;99.90;;;;;;5053076;28;20210;-79
2022/09/20 08:18:36;;;;;;;13.30;2.25;;;11.80;99.90;;;;;;5053977;28;20048;-81
2022/09/20 08:21:11;;;;;;;9.13;1.90;;;11.80;99.90;;;;;;5050550;28;20477;-79
2022/09/20 08:23:39;;;;;;;7.93;2.00;;;11.80;99.90;;;;;;5053849;28;20025;-81
2022/09/20 08:26:13;;;;;;;12.52;2.50;;;12.00;99.90;;;;;;5053438;28;20075;-80
2022/09/20 08:28:40;;;;;;;7.60;2.05;;;12.40;99.90;;;;;;5037132;28;20026;-80
2022/09/20 08:31:18;;;;;;;18.70;3.10;;;12.60;99.90;;;;;;5044136;28;20024;-80
2022/09/20 08:33:44;;;;;;;8.13;2.08;;;12.60;99.90;;;;;;5054182;28;20094;-80
2022/09/20 08:36:27;;;;;;;9.07;2.30;;;12.70;99.90;;;;;;5052849;28;20067;-80
2022/09/20 08:38:53;;;;;;;10.75;1.90;;;12.80;99.90;;;;;;5052648;28;20549;-79
2022/09/20 08:41:24;;;;;;;10.43;2.10;;;12.80;99.90;;;;;;5054136;28;20471;-80
2022/09/20 08:43:54;;;;;;;9.55;1.88;;;12.90;99.90;;;;;;5051121;28;20039;-73
2022/09/20 08:46:27;;;;;;;7.60;2.13;;;13.10;99.90;;;;;;5063172;28;20060;-82
2022/09/20 08:48:57;;;;;;;8.80;2.28;;;13.20;99.90;;;;;;5053063;28;20476;-79
2022/09/20 08:51:28;;;;;;;8.10;2.20;;;13.40;99.90;;;;;;5053937;28;20024;-81
2022/09/20 08:53:55;;;;;;;11.40;2.38;;;13.50;99.90;;;;;;5053975;28;20029;-79
2022/09/20 08:56:25;;;;;;;9.05;1.88;;;13.80;99.90;;;;;;5061614;28;20131;-80
2022/09/20 08:58:52;;;;;;;10.43;1.90;;;13.80;99.90;;;;;;5062725;28;20107;-73
2022/09/20 09:01:20;;;;;;;10.82;1.77;;;13.80;99.90;;;;;;5060284;28;20028;-81
2022/09/20 09:03:50;;;;;;;7.38;1.58;;;13.80;99.90;;;;;;5059954;28;20122;-79
2022/09/20 09:06:19;;;;;;;7.05;1.80;;;13.70;99.90;;;;;;5060060;28;20049;-80
2022/09/20 09:08:52;;;;;;;9.70;1.67;;;14.00;99.90;;;;;;5059493;28;20060;-81
2022/09/20 09:11:19;;;;;;;9.02;1.63;;;14.00;99.90;;;;;;5053385;28;20064;-80
2022/09/20 09:16:59;;;;;;;6.68;1.48;;;14.00;99.90;;;;;;5030730;28;20098;-80
2022/09/20 09:19:30;;;;;;;7.80;1.70;;;13.80;99.90;;;;;;5050230;28;20045;-80
2022/09/20 09:22:06;;;;;;;12.25;1.58;;;13.50;99.90;;;;;;5049967;28;20029;-79
2022/09/20 09:24:32;;;;;;;8.80;1.38;;;13.40;99.90;;;;;;5053084;28;20028;-81
2022/09/20 09:27:15;;;;;;;4.95;0.98;;;13.10;99.90;;;;;;5051749;28;20032;-80
2022/09/20 09:29:52;;;;;;;7.82;1.50;;;12.90;99.90;;;;;;5052879;28;20531;-82
2022/09/20 09:32:23;;;;;;;7.72;1.13;;;12.90;99.90;;;;;;5036728;28;20021;-75
2022/09/20 09:34:49;;;;;;;6.63;1.50;;;12.80;99.90;;;;;;5050786;28;20029;-79
2022/09/20 09:37:27;;;;;;;7.60;1.50;;;12.80;99.90;;;;;;5043739;28;20111;-80
2022/09/20 09:40:19;;;;;;;9.40;1.67;;;12.80;99.90;;;;;;5055350;28;20033;-73
2022/09/20 09:42:54;;;;;;;4.93;1.60;;;12.90;99.90;;;;;;5055096;28;20104;-81
2022/09/20 09:45:33;;;;;;;6.90;1.50;;;13.00;99.90;;;;;;5058163;28;20096;-81
2022/09/20 09:48:00;;;;;;;10.57;1.35;;;13.10;99.90;;;;;;5058366;28;20109;-79
2022/09/20 09:50:29;;;;;;;11.88;2.17;;;13.10;99.90;;;;;;5061879;28;20021;-81
2022/09/20 09:53:15;;;;;;;6.05;1.85;;;13.30;99.90;;;;;;5060460;28;20465;-77
2022/09/20 09:56:05;;;;;;;11.80;1.80;;;13.40;99.90;;;;;;5051528;28;20039;-81
2022/09/20 09:59:09;;;;;;;4.07;1.33;;;13.40;99.90;;;;;;5038434;28;20041;-75
2022/09/20 10:01:54;;;;;;;7.10;1.50;;;13.40;99.90;;;;;;5049348;28;20037;-81
2022/09/20 10:04:46;;;;;;;8.90;1.70;;;13.40;99.90;;;;;;5036858;28;20021;-79
2022/09/20 10:07:25;;;;;;;7.05;1.83;;;13.60;99.90;;;;;;5043673;28;20029;-79
2022/09/20 10:10:00;;;;;;;6.15;1.30;;;13.60;99.90;;;;;;5041183;28;20033;-72
2022/09/20 10:12:41;;;;;;;7.82;1.70;;;13.80;99.90;;;;;;5051392;28;20020;-77
2022/09/20 10:15:25;;;;;;;4.57;1.50;;;14.00;99.90;;;;;;5050822;28;20028;-80
2022/09/20 10:17:57;;;;;;;9.65;1.85;;;14.30;99.90;;;;;;5049677;28;20048;-74
2022/09/20 10:20:24;;;;;;;8.30;1.48;;;14.50;99.90;;;;;;5033508;28;20120;-77
2022/09/20 10:23:14;;;;;;;8.20;1.80;;;14.60;99.90;;;;;;5036901;28;20025;-73
2022/09/20 10:25:58;;;;;;;7.82;2.45;;;14.70;99.90;;;;;;5056798;28;20091;-79
2022/09/20 10:28:31;;;;;;;8.13;1.15;;;14.60;99.90;;;;;;5049286;28;20102;-73
2022/09/20 10:31:10;;;;;;;10.05;1.50;;;;;;;;;;5040675;28;20017;-78
2022/09/20 10:33:46;;;;;;;8.90;1.52;;;;;;;;;;5059360;28;20076;-77
2022/09/20 10:36:23;;;;;;;4.78;0.95;;;;;;;;;;5049786;28;20055;-80
2022/09/20 10:39:19;;;;;;;7.93;1.35;;;;;;;;;;5059445;28;20025;-77
2022/09/20 10:44:45;;;;;;;8.18;1.30;;;;;;;;;;5044485;28;20129;-81
2022/09/20 10:47:18;;;;;;;4.88;1.33;;;;;;;;;;5062157;28;20615;-80
2022/09/20 10:49:57;;;;;;;7.40;1.40;;;;;;;;;;5058021;28;20354;-82
2022/09/20 10:52:42;;;;;;;7.65;0.95;;;;;;;;;;5042967;28;20021;-76
2022/09/20 10:55:19;;;;;;;7.40;1.35;;;;;;;;;;5059087;28;20025;-78
2022/09/20 10:57:45;;;;;;;16.75;1.60;;;;;;;;;;5067425;28;20047;-81
2022/09/20 11:00:24;;;;;;;5.47;1.10;;;;;;;;;;5051565;28;20013;-80
2022/09/20 11:02:50;;;;;;;8.82;1.40;;;;;;;;;;5063614;28;20103;-72
2022/09/20 11:05:19;;;;;;;6.65;1.63;;;;;;;;;;5060414;28;20589;-80
2022/09/20 11:07:58;;;;;;;3.05;0.75;;;;;;;;;;5071194;28;20478;-81
2022/09/20 11:10:28;;;;;;;7.20;1.73;;;;;;;;;;5045588;28;20063;-78
2022/09/20 11:13:03;;;;;;;5.63;1.13;;;;;;;;;;5064883;28;20248;-75
2022/09/20 11:15:32;;;;;;;6.90;1.08;;;;;;;;;;5069378;28;20090;-79
2022/09/20 11:18:08;;;;;;;8.23;1.70;;;16.40;96.40;;;;;;5047268;28;20385;-80
2022/09/20 11:21:16;;;;;;;6.30;1.20;;;16.40;96.50;;;;;;5068398;28;20060;-79
2022/09/20 11:23:58;;;;;;;8.88;1.27;;;16.80;95.30;;;;;;5070879;28;20032;-80
2022/09/20 11:27:01;;;;;;;3.90;0.90;;;17.00;95.10;;;;;;5045292;28;20477;-78
2022/09/20 11:29:35;;;;;;;6.53;1.23;;;17.10;93.60;;;;;;4979832;28;20031;-80
2022/09/20 11:32:36;;;;;;;5.90;1.13;;;17.20;93.30;;;;;;5059636;28;20054;-79
2022/09/20 11:35:13;;;;;;;5.10;1.10;;;17.00;93.50;;;;;;5030402;28;20034;-80
2022/09/20 11:37:46;;;;;;;4.35;1.10;;;17.10;93.00;;;;;;5058517;28;20041;-79
2022/09/20 11:40:24;;;;;;;5.20;1.20;;;17.40;93.30;;;;;;5070058;28;20013;-81
2022/09/20 11:42:51;;;;;;;4.30;1.20;;;17.10;92.20;;;;;;5062464;28;20477;-74
2022/09/20 11:45:18;;;;;;;5.20;1.20;;;16.70;91.70;;;;;;5061106;28;20474;-79
2022/09/20 11:47:53;;;;;;;5.63;1.15;;;16.60;91.70;;;;;;5070210;28;20020;-79
2022/09/20 11:51:03;;;;;;;5.38;1.10;;;16.70;92.30;;;;;;5043021;28;20039;-80
2022/09/20 11:53:37;;;;;;;6.45;1.38;;;16.90;91.80;;;;;;5062716;28;20032;-80
2022/09/20 11:56:39;;;;;;;4.80;1.42;;;17.10;90.00;;;;;;5056954;28;20067;-78
2022/09/20 11:59:21;;;;;;;5.25;1.10;;;17.10;90.10;;;;;;5059987;28;20104;-80
2022/09/20 12:02:00;;;;;;;6.30;1.20;;;17.00;91.10;;;;;;5070567;28;20116;-80
2022/09/20 12:04:30;;;;;;;5.38;1.33;;;16.80;91.80;;;;;;5044898;28;20086;-78
2022/09/20 12:07:23;;;;;;;7.38;1.58;;;16.60;93.00;;;;;;5063405;28;20091;-78
2022/09/20 12:10:07;;;;;;;3.45;1.48;;;16.50;93.30;;;;;;5069399;28;20400;-76
2022/09/20 12:12:42;;;;;;;5.07;1.50;;;16.90;93.20;;;;;;5047942;28;20047;-79
2022/09/20 12:15:32;;;;;;;5.85;1.27;;;17.40;92.50;;;;;;5054003;28;20078;-81
2022/09/20 12:17:58;;;;;;;8.38;1.67;;;17.60;90.20;;;;;;5044632;28;20193;-80
2022/09/20 12:20:41;;;;;;;3.88;1.10;;;17.50;90.30;;;;;;5068501;28;20462;-77
2022/09/20 12:23:37;;;;;;;4.22;1.27;;;17.40;90.30;;;;;;5063301;28;20024;-81
2022/09/20 12:26:19;;;;;;;5.57;1.10;;;17.50;90.50;;;;;;5046181;28;20017;-79
2022/09/20 12:28:54;;;;;;;3.70;1.10;;;17.80;88.30;;;;;;5066309;28;20036;-80
2022/09/20 12:31:32;;;;;;;4.50;1.27;;;;;;;;;;5066364;28;20029;-80
2022/09/20 12:34:00;;;;;;;3.45;1.00;;;;;;;;;;5056451;28;20029;-79
2022/09/20 12:36:28;;;;;;;3.70;1.00;;;;;;;;;;5068164;28;20025;-79
2022/09/20 12:38:58;;;;;;;3.45;1.02;;;19.50;99.90;;;;;;5053218;28;20017;-72
2022/09/20 12:41:24;;;;;;;8.07;1.30;;;19.90;82.30;;;;;;5066233;28;20032;-79
2022/09/20 12:44:03;;;;;;;5.07;1.30;;;19.90;80.10;;;;;;5052205;28;20477;-73
2022/09/20 12:46:33;;;;;;;9.13;1.83;;;20.00;78.90;;;;;;5054360;28;20508;-79
2022/09/20 12:52:49;;;;;;;4.00;1.13;;;19.50;79.80;;;;;;5056170;28;20043;-77
2022/09/20 12:55:44;;;;;;;5.45;1.35;;;19.50;79.70;;;;;;5062146;28;20021;-78
2022/09/20 13:00:43;;;;;;;5.32;1.10;;;19.50;78.70;;;;;;5048978;28;20074;-77
2022/09/20 13:03:09;;;;;;;4.30;1.05;;;19.50;77.80;;;;;;5060192;28;20322;-75
2022/09/20 13:05:38;;;;;;;3.75;0.93;;;19.50;78.00;;;;;;5058949;28;20501;-75
2022/09/20 13:08:24;;;;;;;5.53;1.30;;;19.20;77.10;;;;;;5067614;28;20060;-75
2022/09/20 13:11:02;;;;;;;6.80;1.35;;;18.50;76.60;;;;;;5060392;28;20473;-73
2022/09/20 13:13:33;;;;;;;2.78;1.13;;;18.50;77.80;;;;;;5057923;28;20061;-75
2022/09/20 13:16:04;;;;;;;3.88;1.33;;;18.80;77.10;;;;;;5065460;28;20029;-74
2022/09/20 13:18:31;;;;;;;2.60;0.90;;;19.20;77.30;;;;;;5066768;28;20041;-77
2022/09/20 13:21:02;;;;;;;5.13;1.40;;;19.50;76.30;;;;;;5052101;28;20371;-74
2022/09/20 13:23:30;;;;;;;3.35;0.98;;;19.70;74.40;;;;;;5052375;28;20432;-74
2022/09/20 13:25:57;;;;;;;3.97;1.00;;;19.80;75.70;;;;;;5051109;28;20049;-77
2022/09/20 13:28:31;;;;;;;2.03;0.95;;;20.20;74.20;;;;;;5052336;28;20025;-75
2022/09/20 13:31:23;;;;;;;3.70;1.15;;;20.50;73.20;;;;;;5051434;28;20036;-76
2022/09/20 13:33:49;;;;;;;3.33;0.90;;;20.70;72.40;;;;;;5041827;28;20439;-75
2022/09/20 13:36:23;;;;;;;3.55;0.90;;;20.20;71.30;;;;;;5050994;28;20017;-75
2022/09/20 13:38:48;;;;;;;6.00;1.10;;;19.70;72.40;;;;;;5051334;28;20446;-75
2022/09/20 13:41:15;;;;;;;2.22;0.70;;;19.20;73.80;;;;;;5050809;28;20028;-75
2022/09/20 13:43:43;;;;;;;6.03;1.25;;;18.90;75.00;;;;;;5051835;28;20111;-76
2022/09/20 13:46:11;;;;;;;5.43;1.02;;;18.60;77.10;;;;;;5051668;28;20112;-80
2022/09/20 13:48:37;;;;;;;2.67;1.35;;;18.30;78.20;;;;;;5051683;28;20032;-80
2022/09/20 13:51:15;;;;;;;4.45;1.00;;;17.90;78.70;;;;;;5048980;28;20040;-81
2022/09/20 13:53:40;;;;;;;6.72;1.25;;;17.60;77.90;;;;;;5053265;28;20059;-83
2022/09/20 13:56:20;;;;;;;10.32;1.52;;;17.40;79.50;;;;;;5050753;28;20021;-79
2022/09/20 13:58:47;;;;;;;6.53;2.05;;;17.10;81.40;;;;;;5051675;28;20028;-80
2022/09/20 14:01:23;;;;;;;6.60;1.70;;;16.80;82.70;;;;;;5050905;28;20032;-78
2022/09/20 14:03:49;;;;;;;3.67;1.45;;;16.60;84.60;;;;;;5051812;28;20381;-76
2022/09/20 14:06:15;;;;;;;5.13;1.52;;;16.30;86.20;;;;;;5050805;28;20029;-79
2022/09/20 14:08:44;;;;;;;8.13;1.27;;;16.10;88.20;;;;;;5040809;28;20051;-80
2022/09/20 14:11:15;;;;;;;7.68;1.88;;;15.80;89.20;;;;;;5051497;28;20024;-80